createdAt,value
2022-10-06T00:04:52.414Z,16.09
2022-10-06T00:09:57.397Z,16.14
2022-10-06T00:15:02.334Z,16.20
2022-10-06T00:20:13.312Z,16.18
2022-10-06T00:25:21.128Z,16.15
2022-10-06T00:30:27.870Z,16.28
2022-10-06T00:35:36.924Z,16.36
2022-10-06T00:40:47.108Z,16.28
2022-10-06T00:45:52.222Z,16.36
2022-10-06T00:51:01.876Z,16.33
2022-10-06T00:56:06.707Z,16.23
2022-10-06T01:01:14.369Z,16.11
2022-10-06T01:06:22.259Z,16.02
2022-10-06T01:11:27.293Z,16.11
2022-10-06T01:16:34.582Z,16.04
2022-10-06T01:21:47.495Z,16.10
2022-10-06T01:26:56.919Z,16.03
2022-10-06T01:32:02.506Z,15.94
2022-10-06T01:37:07.626Z,15.91
2022-10-06T01:42:16.197Z,15.89
2022-10-06T01:47:21.140Z,15.76
2022-10-06T01:52:26.337Z,15.76
2022-10-06T01:57:33.738Z,15.71
2022-10-06T02:02:40.227Z,15.65
2022-10-06T02:07:45.017Z,15.66
2022-10-06T02:12:58.302Z,15.61
2022-10-06T02:18:05.288Z,15.78
2022-10-06T02:23:10.201Z,15.82
2022-10-06T02:28:17.623Z,15.83
2022-10-06T02:33:22.648Z,15.90
2022-10-06T02:38:28.190Z,15.90
2022-10-06T02:43:37.178Z,15.87
2022-10-06T02:48:43.388Z,15.95
2022-10-06T02:53:50.463Z,15.75
2022-10-06T02:58:58.447Z,16.01
2022-10-06T03:04:11.766Z,15.97
2022-10-06T03:09:18.904Z,16.01
2022-10-06T03:14:26.369Z,15.94
2022-10-06T03:19:31.427Z,15.82
2022-10-06T03:24:37.317Z,15.83
2022-10-06T03:29:46.132Z,15.87
2022-10-06T03:34:53.403Z,15.88
2022-10-06T03:39:58.723Z,15.87
2022-10-06T03:45:06.763Z,15.89
2022-10-06T03:50:12.766Z,15.90
2022-10-06T03:55:17.692Z,15.85
2022-10-06T04:00:25.406Z,15.80
2022-10-06T04:05:30.389Z,15.83
2022-10-06T04:10:36.478Z,15.77
2022-10-06T04:15:44.085Z,15.78
2022-10-06T04:20:49.363Z,15.80
2022-10-06T04:26:00.796Z,15.85
2022-10-06T04:31:10.464Z,15.92
2022-10-06T04:36:17.752Z,15.98
2022-10-06T04:41:23.236Z,16.02
2022-10-06T04:46:42.633Z,16.01
2022-10-06T04:51:49.851Z,16.09
2022-10-06T04:56:56.814Z,16.15
2022-10-06T05:02:07.078Z,16.21
2022-10-06T05:07:12.148Z,16.27
2022-10-06T05:12:17.130Z,16.30
2022-10-06T05:17:27.223Z,16.29
2022-10-06T05:22:32.694Z,16.31
2022-10-06T05:27:37.804Z,16.40
2022-10-06T05:32:50.573Z,16.39
2022-10-06T05:37:57.512Z,16.45
2022-10-06T05:43:03.125Z,16.51
2022-10-06T05:48:11.836Z,16.47
2022-10-06T05:53:17.109Z,16.48
2022-10-06T05:58:21.993Z,16.54
2022-10-06T06:03:29.607Z,16.55
2022-10-06T06:08:34.823Z,16.55
2022-10-06T06:13:39.967Z,16.52
2022-10-06T06:18:53.227Z,16.55
2022-10-06T06:24:01.012Z,16.49
2022-10-06T06:29:07.542Z,16.16
2022-10-06T06:34:20.871Z,15.99
2022-10-06T06:39:29.326Z,15.55
2022-10-06T06:44:40.935Z,15.35
2022-10-06T06:50:03.084Z,15.19
2022-10-06T06:55:09.480Z,14.71
2022-10-06T07:00:16.857Z,14.45
2022-10-06T07:05:26.073Z,14.16
2022-10-06T07:10:35.523Z,14.26
2022-10-06T07:15:53.575Z,13.86
2022-10-06T07:21:14.958Z,13.44
2022-10-06T07:26:20.051Z,13.43
2022-10-06T07:31:27.441Z,13.46
2022-10-06T07:36:37.810Z,13.30
2022-10-06T07:41:43.938Z,13.54
2022-10-06T07:46:55.064Z,13.84
2022-10-06T07:52:16.599Z,13.51
2022-10-06T07:57:25.024Z,13.48
2022-10-06T08:02:33.138Z,13.75
2022-10-06T08:07:44.317Z,13.89
2022-10-06T08:12:50.402Z,13.96
2022-10-06T08:17:57.717Z,14.06
2022-10-06T08:23:15.968Z,13.85
2022-10-06T08:28:22.477Z,14.03
2022-10-06T08:33:30.154Z,14.28
2022-10-06T08:38:38.904Z,14.51
2022-10-06T08:43:45.057Z,14.17
2022-10-06T08:48:49.972Z,14.27
2022-10-06T08:54:05.507Z,14.35
2022-10-06T08:59:12.193Z,14.22
2022-10-06T09:04:26.556Z,14.44
2022-10-06T09:10:00.064Z,14.57
2022-10-06T09:15:19.372Z,14.71
2022-10-06T09:20:32.068Z,14.85
2022-10-06T09:25:41.195Z,14.89
2022-10-06T09:30:47.030Z,15.18
2022-10-06T09:36:10.613Z,15.02
2022-10-06T09:41:19.279Z,14.86
2022-10-06T09:46:31.496Z,15.51
2022-10-06T09:51:38.183Z,16.34
2022-10-06T09:56:47.858Z,16.66
2022-10-06T10:01:59.923Z,16.85
2022-10-06T10:07:19.256Z,16.89
2022-10-06T10:12:34.379Z,16.19
2022-10-06T10:17:50.882Z,16.36
2022-10-06T10:23:00.001Z,17.26
2022-10-06T10:28:19.219Z,17.53
2022-10-06T10:33:33.523Z,18.18
2022-10-06T10:38:43.030Z,17.11
2022-10-06T10:43:59.618Z,17.45
2022-10-06T10:49:15.549Z,17.46
2022-10-06T10:54:25.217Z,18.09
2022-10-06T10:59:38.329Z,18.23
2022-10-06T11:04:49.664Z,18.25
2022-10-06T11:10:01.478Z,17.76
2022-10-06T11:15:18.601Z,18.68
2022-10-06T11:20:41.804Z,18.84
2022-10-06T11:25:56.779Z,19.26
2022-10-06T11:31:16.565Z,19.12
2022-10-06T11:36:34.754Z,17.67
2022-10-06T11:41:45.524Z,18.99
2022-10-06T11:46:59.828Z,19.79
2022-10-06T11:52:47.349Z,19.82
2022-10-06T11:58:42.400Z,19.02
2022-10-06T12:04:06.446Z,18.11
2022-10-06T12:09:31.301Z,19.08
2022-10-06T12:20:21.766Z,18.27
2022-10-06T12:25:34.375Z,17.92
2022-10-06T12:31:00.266Z,18.04
2022-10-06T12:36:18.777Z,18.51
2022-10-06T12:41:53.820Z,18.69
2022-10-06T12:47:04.190Z,19.34
2022-10-06T12:52:40.274Z,19.72
2022-10-06T12:57:49.642Z,18.92
2022-10-06T13:02:58.560Z,18.36
2022-10-06T13:08:08.105Z,18.46
2022-10-06T13:13:25.481Z,19.16
2022-10-06T13:18:32.612Z,19.37
2022-10-06T13:23:43.899Z,19.15
2022-10-06T13:28:52.083Z,19.81
2022-10-06T13:34:01.186Z,20.01
2022-10-06T13:39:09.621Z,19.14
2022-10-06T13:44:32.732Z,18.29
2022-10-06T13:49:43.767Z,18.47
2022-10-06T13:54:56.009Z,19.23
2022-10-06T14:00:18.260Z,18.72
2022-10-06T14:05:30.503Z,18.54
2022-10-06T14:10:49.575Z,18.96
2022-10-06T14:15:57.462Z,18.89
2022-10-06T14:21:18.788Z,18.46
2022-10-06T14:26:27.719Z,19.07
2022-10-06T14:31:34.406Z,18.71
2022-10-06T14:36:40.156Z,18.28
2022-10-06T14:41:48.382Z,18.54
2022-10-06T14:46:54.101Z,18.46
2022-10-06T14:51:59.189Z,18.59
2022-10-06T14:57:07.236Z,18.15
2022-10-06T15:02:14.452Z,17.96
2022-10-06T15:07:31.656Z,17.83
2022-10-06T15:12:39.078Z,17.72
2022-10-06T15:17:43.897Z,17.75
2022-10-06T15:22:49.128Z,17.57
2022-10-06T15:28:09.273Z,17.44
2022-10-06T15:33:14.275Z,17.26
2022-10-06T15:38:19.557Z,17.35
2022-10-06T15:43:46.997Z,17.24
2022-10-06T15:48:52.439Z,17.34
2022-10-06T15:53:58.450Z,17.40
2022-10-06T15:59:06.030Z,17.05
2022-10-06T16:04:24.201Z,17.19
2022-10-06T16:09:30.745Z,17.26
2022-10-06T16:14:38.842Z,17.22
2022-10-06T16:19:44.422Z,16.96
2022-10-06T16:24:49.235Z,16.64
2022-10-06T16:29:57.153Z,16.58
2022-10-06T16:35:02.225Z,16.45
2022-10-06T16:40:07.985Z,16.24
2022-10-06T16:45:16.152Z,16.18
2022-10-06T16:50:21.101Z,15.98
2022-10-06T16:55:26.148Z,15.45
2022-10-06T17:00:33.708Z,14.92
2022-10-06T17:05:39.662Z,14.70
2022-10-06T17:10:44.710Z,14.29
2022-10-06T17:16:00.241Z,14.04
2022-10-06T17:21:32.144Z,13.99
2022-10-06T17:26:37.851Z,13.93
2022-10-06T17:31:46.384Z,13.89
2022-10-06T17:36:53.474Z,13.40
2022-10-06T17:41:58.448Z,13.19
2022-10-06T17:47:05.821Z,13.24
2022-10-06T17:52:10.976Z,13.17
2022-10-06T17:57:16.378Z,12.76
2022-10-06T18:02:23.973Z,12.54
2022-10-06T18:07:28.738Z,12.61
2022-10-06T18:12:36.259Z,12.49
2022-10-06T18:17:44.287Z,12.28
2022-10-06T18:22:49.287Z,12.19
2022-10-06T18:27:54.269Z,12.03
2022-10-06T18:38:27.960Z,11.84
2022-10-06T18:43:33.333Z,11.45
2022-10-06T18:48:58.935Z,11.39
2022-10-06T18:54:07.179Z,11.42
2022-10-06T18:59:14.650Z,11.09
2022-10-06T19:04:23.895Z,10.55
2022-10-06T19:09:28.688Z,11.15
2022-10-06T19:14:36.778Z,10.66
2022-10-06T19:19:48.217Z,10.51
2022-10-06T19:24:54.042Z,10.74
2022-10-06T19:29:59.248Z,10.36
2022-10-06T19:35:10.291Z,10.38
2022-10-06T19:40:15.970Z,10.40
2022-10-06T19:45:21.353Z,10.51
2022-10-06T19:50:30.510Z,10.50
2022-10-06T19:55:35.621Z,10.33
2022-10-06T20:00:41.456Z,10.05
2022-10-06T20:05:49.032Z,9.86
2022-10-06T20:10:54.045Z,9.31
2022-10-06T20:15:58.996Z,9.55
2022-10-06T20:21:06.942Z,9.64
2022-10-06T20:26:15.709Z,9.60
2022-10-06T20:31:23.157Z,9.72
2022-10-06T20:36:32.359Z,9.23
2022-10-06T20:41:40.666Z,9.44
2022-10-06T20:46:45.453Z,9.60
2022-10-06T20:51:53.186Z,9.54
2022-10-06T20:56:58.709Z,9.45
2022-10-06T21:02:03.580Z,9.14
2022-10-06T21:07:11.297Z,9.21
2022-10-06T21:12:16.592Z,9.22
2022-10-06T21:17:22.065Z,8.99
2022-10-06T21:22:31.306Z,8.71
2022-10-06T21:27:36.312Z,8.68
2022-10-06T21:32:42.586Z,8.78
2022-10-06T21:37:50.347Z,8.66
2022-10-06T21:42:55.221Z,8.67
2022-10-06T21:48:00.285Z,8.72
2022-10-06T21:53:07.756Z,8.49
2022-10-06T21:58:12.758Z,8.56
2022-10-06T22:03:17.649Z,8.54
2022-10-06T22:08:25.398Z,8.39
2022-10-06T22:13:31.398Z,8.25
2022-10-06T22:18:36.661Z,8.05
2022-10-06T22:23:45.296Z,8.35
2022-10-06T22:28:51.599Z,8.37
2022-10-06T22:33:58.582Z,8.01
2022-10-06T22:39:06.601Z,8.18
2022-10-06T22:44:11.633Z,8.17
2022-10-06T22:49:16.410Z,7.90
2022-10-06T22:54:27.771Z,8.21
2022-10-06T22:59:32.960Z,8.31
2022-10-06T23:04:37.905Z,8.21
2022-10-06T23:09:45.479Z,7.52
2022-10-06T23:14:50.696Z,7.88
2022-10-06T23:19:55.653Z,7.84
2022-10-06T23:25:03.382Z,7.40
2022-10-06T23:30:10.316Z,7.53
2022-10-06T23:35:15.695Z,7.48
2022-10-06T23:40:23.309Z,7.70
2022-10-06T23:45:28.514Z,7.58
2022-10-06T23:50:33.441Z,7.67
2022-10-06T23:55:41.395Z,7.82
